METAR stanice u blizini

 

LYBE - Beograd / Surčin, Srbija
Ažurirano: 27/07/2021 05:00
Vedro
Vedro
 Pravac vetra calm
Vetar: Tišina
Temperatura: 24°C
Tačka rose: 19°C
Vlažnost: 74%
Pritisak: 1016 hPa
Pregled: Vedro
Vidljivost: greater than 10 km
2021/07/27 03:00 LYBE 270300Z 00000KT CAVOK 24/19 Q1016 NOSIG
LYBT - Beograd / Batajnica, Srbija
Ažurirano: 27/07/2021 05:00
Vedro
Vedro
 Pravac vetra calm
Vetar: Tišina
Temperatura: 21°C
Tačka rose: 21°C
Vlažnost: 100%
Pritisak: 1016 hPa
Pregled: Vedro
Vidljivost: greater than 10 km
2021/07/27 03:00 LYBT 270300Z 00000KT CAVOK 21/21 Q1016 NOSIG
LYVR - Vršac, Srbija
Ažurirano: 27/07/2021 05:00
Vedro
Vedro
 Pravac vetra JI
Vetar: JI 30 km/h
Temperatura: 28°C
Tačka rose: 12°C
Vlažnost: 37%
Pritisak: 1015 hPa
Pregled: Vedro
Vidljivost: greater than 10 km
2021/07/27 03:00 LYVR 270300Z AUTO 14016KT CAVOK 28/12 Q1015
 
LYKV - Lađevci, Srbija
Ažurirano: 27/07/2021 05:00
Vedro
Vedro
 Pravac vetra varies
Vetar: varies 2 km/h
Temperatura: 18°C
Tačka rose: 17°C
Vlažnost: 94%
Pritisak: 1018 hPa
Pregled: Vedro
Vidljivost: greater than 10 km
2021/07/27 03:00 LYKV 270300Z VRB01KT CAVOK 18/17 Q1018 NOSIG
LYNI - Niš, Srbija
Ažurirano: 27/07/2021 05:00
Vedro
Vedro
 Pravac vetra J
Vetar: J 6 km/h
Temperatura: 19°C
Tačka rose: 17°C
Vlažnost: 88%
Pritisak: 1018 hPa
Pregled: Vedro
Vidljivost: greater than 10 km
2021/07/27 03:00 LYNI 270300Z 19003KT 150V220 CAVOK 19/17 Q1018 NOSIG
BKPR - Priština, Srbija
Ažurirano: 27/07/2021 05:00
Vedro
Vedro
 Pravac vetra calm
Vetar: Tišina
Temperatura: 18°C
Tačka rose: 13°C
Vlažnost: 73%
Pritisak: 1021 hPa
Pregled: Vedro
Vidljivost: greater than 10 km
2021/07/27 03:00 BKPR 270300Z 00000KT CAVOK 18/13 Q1021 NOSIG
 
LHPP - Pecs / Pogany, Hungary
Ažurirano: 26/07/2021 18:45
NOT Current
Vedro
Vedro
 Pravac vetra JZ
Vetar: JZ 9 km/h
Temperatura: 31°C
Tačka rose: 15°C
Vlažnost: 38%
Pritisak: 1013 hPa
Pregled: Vedro
Vidljivost: greater than 10 km
2021/07/26 16:45 LHPP 261645Z 23005KT CAVOK 31/15 Q1013
LHUD - Szeged, Hungary
Ažurirano: 04/07/2019 01:45
NOT Current
Vedro
Vedro
 Pravac vetra S
Vetar: S 7 km/h
Temperatura: 18°C
Tačka rose: 13°C
Vlažnost: 73%
Pritisak: 1019 hPa
Pregled: Vedro
Vidljivost: greater than 10 km
2019/07/03 23:45 LHUD 032345Z 35004KT CAVOK 18/13 Q1019
LRTR - Timisoara, Romania
Ažurirano: 27/07/2021 05:00
Vedro
Vedro
 Pravac vetra IJI
Vetar: IJI 15 km/h
Temperatura: 22°C
Tačka rose: 17°C
Vlažnost: 73%
Pritisak: 1016 hPa
Pregled: Vedro
Vidljivost: greater than 10 km
2021/07/27 03:00 LRTR 270300Z 11008KT CAVOK 22/17 Q1016
 
LRCV - Craiova, Romania
Ažurirano: 27/07/2021 05:00
Vedro
Vedro
 Pravac vetra SI
Vetar: SI 6 km/h
Temperatura: 19°C
Tačka rose: 15°C
Vlažnost: 78%
Pritisak: 1018 hPa
Pregled: Vedro
Vidljivost: greater than 10 km
2021/07/27 03:00 LRCV 270300Z 04003KT CAVOK 19/15 Q1018
LBSF - Sofia, Bulgaria
Ažurirano: 27/07/2021 05:00
Vedro
Vedro
 Pravac vetra varies
Vetar: varies 4 km/h
Temperatura: 17°C
Tačka rose: 12°C
Vlažnost: 73%
Pritisak: 1021 hPa
Pregled: Vedro
Vidljivost: greater than 10 km
2021/07/27 03:00 LBSF 270300Z VRB02KT CAVOK 17/12 Q1021 NOSIG
LWSK - Skoplje, Makedonija
Ažurirano: 27/07/2021 05:00
Vedro
Vedro
 Pravac vetra SSI
Vetar: SSI 4 km/h
Temperatura: 20°C
Tačka rose: 16°C
Vlažnost: 78%
Pritisak: 1020 hPa
Pregled: Vedro
Vidljivost: greater than 10 km
2021/07/27 03:00 LWSK 270300Z 03002KT CAVOK 20/16 Q1020 NOSIG
 
LYPG - Podgorica, Crna Gora
Ažurirano: 27/07/2021 05:00
Vedro
Vedro
 Pravac vetra varies
Vetar: varies 2 km/h
Temperatura: 23°C
Tačka rose: 13°C
Vlažnost: 53%
Pritisak: 1017 hPa
Pregled: Vedro
Vidljivost: greater than 10 km
2021/07/27 03:00 LYPG 270300Z VRB01KT CAVOK 23/13 Q1017 NOSIG
LQSA - Sarajevo, Bosna i Hercegovina
Ažurirano: 27/07/2021 05:00
Vedro
Vedro
 Pravac vetra varies
Vetar: varies 2 km/h
Temperatura: 16°C
Tačka rose: 15°C
Vlažnost: 94%
Pritisak: 1020 hPa
Pregled: Vedro
Vidljivost: greater than 10 km
2021/07/27 03:00 LQSA 270300Z VRB01KT CAVOK 16/15 Q1020
LDOS - Osijek, Hrvatksa
Ažurirano: 27/07/2021 05:00
Vedro
Vedro
 Pravac vetra J
Vetar: J 9 km/h
Temperatura: 21°C
Tačka rose: 19°C
Vlažnost: 88%
Pritisak: 1015 hPa
Pregled: Vedro
Vidljivost: greater than 10 km
2021/07/27 03:00 LDOS 270300Z 19005KT CAVOK 21/19 Q1015